sensor_id;sensor_type;location;lat;lon;timestamp;P1;durP1;ratioP1;P2;durP2;ratioP2
1625;SDS011;806;48.770;9.156;2023-02-28T00:01:05;1.10;;;0.70;;
1625;SDS011;806;48.770;9.156;2023-02-28T00:03:33;1.20;;;0.60;;
1625;SDS011;806;48.770;9.156;2023-02-28T00:06:01;0.90;;;0.60;;
1625;SDS011;806;48.770;9.156;2023-02-28T00:08:31;1.40;;;0.50;;
1625;SDS011;806;48.770;9.156;2023-02-28T00:11:00;0.90;;;0.60;;
1625;SDS011;806;48.770;9.156;2023-02-28T00:13:28;1.10;;;0.60;;
1625;SDS011;806;48.770;9.156;2023-02-28T00:16:00;1.00;;;0.68;;
1625;SDS011;806;48.770;9.156;2023-02-28T00:18:27;0.90;;;0.60;;
1625;SDS011;806;48.770;9.156;2023-02-28T00:20:55;1.10;;;0.60;;
1625;SDS011;806;48.770;9.156;2023-02-28T00:23:22;0.80;;;0.60;;
1625;SDS011;806;48.770;9.156;2023-02-28T00:25:51;1.30;;;0.50;;
1625;SDS011;806;48.770;9.156;2023-02-28T00:28:18;0.80;;;0.50;;
1625;SDS011;806;48.770;9.156;2023-02-28T00:30:46;1.10;;;0.60;;
1625;SDS011;806;48.770;9.156;2023-02-28T00:33:13;0.90;;;0.50;;
1625;SDS011;806;48.770;9.156;2023-02-28T00:35:41;1.00;;;0.70;;
1625;SDS011;806;48.770;9.156;2023-02-28T00:38:08;1.00;;;0.60;;
1625;SDS011;806;48.770;9.156;2023-02-28T00:40:36;0.90;;;0.52;;
1625;SDS011;806;48.770;9.156;2023-02-28T00:43:04;1.70;;;0.70;;
1625;SDS011;806;48.770;9.156;2023-02-28T00:45:33;0.90;;;0.60;;
1625;SDS011;806;48.770;9.156;2023-02-28T00:48:02;1.10;;;0.70;;
1625;SDS011;806;48.770;9.156;2023-02-28T00:50:30;1.70;;;0.60;;
1625;SDS011;806;48.770;9.156;2023-02-28T00:52:57;1.40;;;0.70;;
1625;SDS011;806;48.770;9.156;2023-02-28T00:55:25;1.00;;;0.60;;
1625;SDS011;806;48.770;9.156;2023-02-28T00:57:53;1.40;;;0.60;;
1625;SDS011;806;48.770;9.156;2023-02-28T01:00:21;0.90;;;0.60;;
1625;SDS011;806;48.770;9.156;2023-02-28T01:02:49;0.90;;;0.60;;
1625;SDS011;806;48.770;9.156;2023-02-28T01:05:18;1.00;;;0.70;;
1625;SDS011;806;48.770;9.156;2023-02-28T01:07:45;1.50;;;0.60;;
1625;SDS011;806;48.770;9.156;2023-02-28T01:10:12;2.10;;;0.70;;
1625;SDS011;806;48.770;9.156;2023-02-28T01:12:41;1.02;;;0.60;;
1625;SDS011;806;48.770;9.156;2023-02-28T01:15:09;1.30;;;0.63;;
1625;SDS011;806;48.770;9.156;2023-02-28T01:17:38;1.50;;;0.70;;
1625;SDS011;806;48.770;9.156;2023-02-28T01:20:06;1.23;;;0.70;;
1625;SDS011;806;48.770;9.156;2023-02-28T01:22:34;1.90;;;0.70;;
1625;SDS011;806;48.770;9.156;2023-02-28T01:25:02;1.47;;;0.70;;
1625;SDS011;806;48.770;9.156;2023-02-28T01:27:29;1.30;;;0.70;;
1625;SDS011;806;48.770;9.156;2023-02-28T01:29:56;1.17;;;0.60;;
1625;SDS011;806;48.770;9.156;2023-02-28T01:32:23;1.55;;;0.70;;
1625;SDS011;806;48.770;9.156;2023-02-28T01:34:52;1.30;;;0.70;;
1625;SDS011;806;48.770;9.156;2023-02-28T01:37:19;0.95;;;0.70;;
1625;SDS011;806;48.770;9.156;2023-02-28T01:39:46;1.20;;;0.70;;
1625;SDS011;806;48.770;9.156;2023-02-28T01:42:13;0.98;;;0.60;;
1625;SDS011;806;48.770;9.156;2023-02-28T01:44:57;1.00;;;0.70;;
1625;SDS011;806;48.770;9.156;2023-02-28T01:47:28;1.30;;;0.80;;
1625;SDS011;806;48.770;9.156;2023-02-28T01:49:59;1.30;;;0.70;;
1625;SDS011;806;48.770;9.156;2023-02-28T01:52:30;1.30;;;0.80;;
1625;SDS011;806;48.770;9.156;2023-02-28T01:54:59;1.90;;;0.80;;
1625;SDS011;806;48.770;9.156;2023-02-28T01:57:29;1.13;;;0.70;;
1625;SDS011;806;48.770;9.156;2023-02-28T02:00:03;1.58;;;0.70;;
1625;SDS011;806;48.770;9.156;2023-02-28T02:02:36;1.20;;;0.80;;
1625;SDS011;806;48.770;9.156;2023-02-28T02:05:07;1.90;;;0.70;;
1625;SDS011;806;48.770;9.156;2023-02-28T02:07:36;1.00;;;0.70;;
1625;SDS011;806;48.770;9.156;2023-02-28T02:10:09;1.20;;;0.80;;
1625;SDS011;806;48.770;9.156;2023-02-28T02:12:47;1.58;;;0.80;;
1625;SDS011;806;48.770;9.156;2023-02-28T02:15:29;1.70;;;0.80;;
1625;SDS011;806;48.770;9.156;2023-02-28T02:18:01;1.20;;;0.80;;
1625;SDS011;806;48.770;9.156;2023-02-28T02:20:42;1.30;;;0.73;;
1625;SDS011;806;48.770;9.156;2023-02-28T02:26:48;1.90;;;0.80;;
1625;SDS011;806;48.770;9.156;2023-02-28T02:32:47;1.70;;;0.80;;
1625;SDS011;806;48.770;9.156;2023-02-28T02:35:32;1.67;;;0.90;;
1625;SDS011;806;48.770;9.156;2023-02-28T02:38:06;1.10;;;0.70;;
1625;SDS011;806;48.770;9.156;2023-02-28T02:40:38;1.55;;;0.90;;
1625;SDS011;806;48.770;9.156;2023-02-28T02:43:11;1.17;;;0.80;;
1625;SDS011;806;48.770;9.156;2023-02-28T02:45:44;1.40;;;0.95;;
1625;SDS011;806;48.770;9.156;2023-02-28T02:48:16;1.20;;;0.90;;
1625;SDS011;806;48.770;9.156;2023-02-28T02:50:48;1.73;;;0.90;;
1625;SDS011;806;48.770;9.156;2023-02-28T02:53:18;1.70;;;0.88;;
1625;SDS011;806;48.770;9.156;2023-02-28T02:55:51;1.30;;;0.80;;
1625;SDS011;806;48.770;9.156;2023-02-28T02:58:22;1.55;;;0.80;;
1625;SDS011;806;48.770;9.156;2023-02-28T03:00:53;2.20;;;0.90;;
1625;SDS011;806;48.770;9.156;2023-02-28T03:03:24;1.52;;;0.90;;
1625;SDS011;806;48.770;9.156;2023-02-28T03:05:56;1.20;;;0.90;;
1625;SDS011;806;48.770;9.156;2023-02-28T03:08:25;2.28;;;0.93;;
1625;SDS011;806;48.770;9.156;2023-02-28T03:10:55;1.20;;;0.80;;
1625;SDS011;806;48.770;9.156;2023-02-28T03:13:33;1.63;;;0.85;;
1625;SDS011;806;48.770;9.156;2023-02-28T03:16:15;1.70;;;0.90;;
1625;SDS011;806;48.770;9.156;2023-02-28T03:18:53;2.00;;;0.90;;
1625;SDS011;806;48.770;9.156;2023-02-28T03:21:30;1.40;;;0.90;;
1625;SDS011;806;48.770;9.156;2023-02-28T03:24:03;1.30;;;0.90;;
1625;SDS011;806;48.770;9.156;2023-02-28T03:26:34;1.80;;;0.80;;
1625;SDS011;806;48.770;9.156;2023-02-28T03:29:07;1.55;;;0.93;;
1625;SDS011;806;48.770;9.156;2023-02-28T03:31:43;2.03;;;0.90;;
1625;SDS011;806;48.770;9.156;2023-02-28T03:34:15;1.67;;;0.90;;
1625;SDS011;806;48.770;9.156;2023-02-28T03:36:49;1.70;;;0.90;;
1625;SDS011;806;48.770;9.156;2023-02-28T03:39:20;1.77;;;1.00;;
1625;SDS011;806;48.770;9.156;2023-02-28T03:41:51;1.70;;;1.00;;
1625;SDS011;806;48.770;9.156;2023-02-28T03:44:24;1.50;;;0.90;;
1625;SDS011;806;48.770;9.156;2023-02-28T03:46:57;1.40;;;0.90;;
1625;SDS011;806;48.770;9.156;2023-02-28T03:49:28;1.40;;;0.90;;
1625;SDS011;806;48.770;9.156;2023-02-28T03:52:02;2.70;;;0.90;;
1625;SDS011;806;48.770;9.156;2023-02-28T03:54:35;1.80;;;0.93;;
1625;SDS011;806;48.770;9.156;2023-02-28T03:57:08;1.30;;;0.90;;
1625;SDS011;806;48.770;9.156;2023-02-28T03:59:43;1.17;;;0.90;;
1625;SDS011;806;48.770;9.156;2023-02-28T04:02:13;1.60;;;1.00;;
1625;SDS011;806;48.770;9.156;2023-02-28T04:04:40;1.88;;;1.00;;
1625;SDS011;806;48.770;9.156;2023-02-28T04:07:15;2.10;;;1.00;;
1625;SDS011;806;48.770;9.156;2023-02-28T04:09:42;1.90;;;0.90;;
1625;SDS011;806;48.770;9.156;2023-02-28T04:12:10;1.60;;;1.00;;
1625;SDS011;806;48.770;9.156;2023-02-28T04:14:37;1.60;;;1.10;;
1625;SDS011;806;48.770;9.156;2023-02-28T04:17:04;2.17;;;1.08;;
1625;SDS011;806;48.770;9.156;2023-02-28T04:19:31;1.30;;;0.90;;
1625;SDS011;806;48.770;9.156;2023-02-28T04:21:59;2.20;;;1.00;;
1625;SDS011;806;48.770;9.156;2023-02-28T04:24:27;2.60;;;1.20;;
1625;SDS011;806;48.770;9.156;2023-02-28T04:26:55;1.47;;;0.97;;
1625;SDS011;806;48.770;9.156;2023-02-28T04:29:24;1.67;;;1.00;;
1625;SDS011;806;48.770;9.156;2023-02-28T04:31:53;1.90;;;1.00;;
1625;SDS011;806;48.770;9.156;2023-02-28T04:34:23;2.08;;;1.00;;
1625;SDS011;806;48.770;9.156;2023-02-28T04:36:50;2.22;;;1.10;;
1625;SDS011;806;48.770;9.156;2023-02-28T04:39:19;1.40;;;0.90;;
1625;SDS011;806;48.770;9.156;2023-02-28T04:41:48;1.45;;;1.00;;
1625;SDS011;806;48.770;9.156;2023-02-28T04:44:16;1.70;;;1.00;;
1625;SDS011;806;48.770;9.156;2023-02-28T04:46:43;1.50;;;1.00;;
1625;SDS011;806;48.770;9.156;2023-02-28T04:49:11;2.30;;;1.00;;
1625;SDS011;806;48.770;9.156;2023-02-28T04:51:38;1.42;;;0.90;;
1625;SDS011;806;48.770;9.156;2023-02-28T04:54:05;1.40;;;1.00;;
1625;SDS011;806;48.770;9.156;2023-02-28T04:56:33;1.50;;;0.93;;
1625;SDS011;806;48.770;9.156;2023-02-28T04:59:02;2.42;;;1.20;;
1625;SDS011;806;48.770;9.156;2023-02-28T05:01:29;1.58;;;1.00;;
1625;SDS011;806;48.770;9.156;2023-02-28T05:03:58;1.85;;;1.00;;
1625;SDS011;806;48.770;9.156;2023-02-28T05:06:29;2.10;;;1.10;;
1625;SDS011;806;48.770;9.156;2023-02-28T05:08:57;2.10;;;1.03;;
1625;SDS011;806;48.770;9.156;2023-02-28T05:11:25;3.20;;;0.98;;
1625;SDS011;806;48.770;9.156;2023-02-28T05:13:54;1.90;;;1.00;;
1625;SDS011;806;48.770;9.156;2023-02-28T05:16:22;2.05;;;1.13;;
1625;SDS011;806;48.770;9.156;2023-02-28T05:18:49;1.60;;;1.10;;
1625;SDS011;806;48.770;9.156;2023-02-28T05:21:26;1.40;;;1.00;;
1625;SDS011;806;48.770;9.156;2023-02-28T05:23:55;3.00;;;1.10;;
1625;SDS011;806;48.770;9.156;2023-02-28T05:26:23;2.28;;;1.20;;
1625;SDS011;806;48.770;9.156;2023-02-28T05:28:50;2.13;;;1.10;;
1625;SDS011;806;48.770;9.156;2023-02-28T05:31:17;1.90;;;1.10;;
1625;SDS011;806;48.770;9.156;2023-02-28T05:33:46;1.92;;;1.10;;
1625;SDS011;806;48.770;9.156;2023-02-28T05:36:13;2.70;;;1.20;;
1625;SDS011;806;48.770;9.156;2023-02-28T05:38:40;2.00;;;1.10;;
1625;SDS011;806;48.770;9.156;2023-02-28T05:41:08;2.25;;;1.10;;
1625;SDS011;806;48.770;9.156;2023-02-28T05:43:36;2.00;;;1.13;;
1625;SDS011;806;48.770;9.156;2023-02-28T05:46:04;1.58;;;1.00;;
1625;SDS011;806;48.770;9.156;2023-02-28T05:48:32;2.80;;;1.10;;
1625;SDS011;806;48.770;9.156;2023-02-28T05:51:00;2.83;;;1.10;;
1625;SDS011;806;48.770;9.156;2023-02-28T05:53:28;1.77;;;1.10;;
1625;SDS011;806;48.770;9.156;2023-02-28T05:55:55;1.60;;;1.20;;
1625;SDS011;806;48.770;9.156;2023-02-28T05:58:23;2.00;;;1.00;;
1625;SDS011;806;48.770;9.156;2023-02-28T06:00:54;2.67;;;1.40;;
1625;SDS011;806;48.770;9.156;2023-02-28T06:03:21;2.35;;;1.10;;
1625;SDS011;806;48.770;9.156;2023-02-28T06:05:48;3.50;;;1.10;;
1625;SDS011;806;48.770;9.156;2023-02-28T06:08:17;2.63;;;1.40;;
1625;SDS011;806;48.770;9.156;2023-02-28T06:10:44;1.98;;;1.27;;
1625;SDS011;806;48.770;9.156;2023-02-28T06:13:11;2.40;;;1.10;;
1625;SDS011;806;48.770;9.156;2023-02-28T06:15:39;3.28;;;1.20;;
1625;SDS011;806;48.770;9.156;2023-02-28T06:18:07;1.60;;;1.05;;
1625;SDS011;806;48.770;9.156;2023-02-28T06:20:34;2.65;;;1.30;;
1625;SDS011;806;48.770;9.156;2023-02-28T06:23:01;1.50;;;1.20;;
1625;SDS011;806;48.770;9.156;2023-02-28T06:25:30;2.47;;;1.30;;
1625;SDS011;806;48.770;9.156;2023-02-28T06:27:57;2.50;;;1.30;;
1625;SDS011;806;48.770;9.156;2023-02-28T06:30:24;3.00;;;1.10;;
1625;SDS011;806;48.770;9.156;2023-02-28T06:32:53;2.33;;;1.00;;
1625;SDS011;806;48.770;9.156;2023-02-28T06:35:20;3.20;;;1.25;;
1625;SDS011;806;48.770;9.156;2023-02-28T06:37:48;2.90;;;1.20;;
1625;SDS011;806;48.770;9.156;2023-02-28T06:40:15;2.10;;;1.10;;
1625;SDS011;806;48.770;9.156;2023-02-28T06:42:44;1.70;;;1.20;;
1625;SDS011;806;48.770;9.156;2023-02-28T06:45:11;1.98;;;1.20;;
1625;SDS011;806;48.770;9.156;2023-02-28T06:47:38;2.60;;;1.15;;
1625;SDS011;806;48.770;9.156;2023-02-28T06:50:07;2.20;;;1.20;;
1625;SDS011;806;48.770;9.156;2023-02-28T06:52:37;2.10;;;1.20;;
1625;SDS011;806;48.770;9.156;2023-02-28T06:55:05;1.85;;;1.10;;
1625;SDS011;806;48.770;9.156;2023-02-28T06:57:34;2.50;;;1.30;;
1625;SDS011;806;48.770;9.156;2023-02-28T07:00:05;1.80;;;1.20;;
1625;SDS011;806;48.770;9.156;2023-02-28T07:02:34;2.95;;;1.30;;
1625;SDS011;806;48.770;9.156;2023-02-28T07:05:02;2.20;;;1.20;;
1625;SDS011;806;48.770;9.156;2023-02-28T07:07:30;2.20;;;1.30;;
1625;SDS011;806;48.770;9.156;2023-02-28T07:09:57;3.60;;;1.30;;
1625;SDS011;806;48.770;9.156;2023-02-28T07:12:24;4.30;;;1.60;;
1625;SDS011;806;48.770;9.156;2023-02-28T07:14:51;2.65;;;1.40;;
1625;SDS011;806;48.770;9.156;2023-02-28T07:17:20;2.15;;;1.25;;
1625;SDS011;806;48.770;9.156;2023-02-28T07:19:48;3.00;;;1.70;;
1625;SDS011;806;48.770;9.156;2023-02-28T07:22:15;2.40;;;1.20;;
1625;SDS011;806;48.770;9.156;2023-02-28T07:24:42;2.40;;;1.30;;
1625;SDS011;806;48.770;9.156;2023-02-28T07:27:09;3.55;;;1.33;;
1625;SDS011;806;48.770;9.156;2023-02-28T07:29:36;2.90;;;1.30;;
1625;SDS011;806;48.770;9.156;2023-02-28T07:32:03;2.60;;;1.35;;
1625;SDS011;806;48.770;9.156;2023-02-28T07:34:32;2.80;;;1.30;;
1625;SDS011;806;48.770;9.156;2023-02-28T07:36:59;3.00;;;1.37;;
1625;SDS011;806;48.770;9.156;2023-02-28T07:39:28;2.70;;;1.35;;
1625;SDS011;806;48.770;9.156;2023-02-28T07:41:55;2.40;;;1.50;;
1625;SDS011;806;48.770;9.156;2023-02-28T07:44:24;2.38;;;1.58;;
1625;SDS011;806;48.770;9.156;2023-02-28T07:46:51;3.33;;;1.70;;
1625;SDS011;806;48.770;9.156;2023-02-28T07:49:18;2.92;;;1.30;;
1625;SDS011;806;48.770;9.156;2023-02-28T07:51:47;2.47;;;1.40;;
1625;SDS011;806;48.770;9.156;2023-02-28T07:54:14;2.70;;;1.40;;
1625;SDS011;806;48.770;9.156;2023-02-28T07:56:41;1.90;;;1.30;;
1625;SDS011;806;48.770;9.156;2023-02-28T07:59:08;2.20;;;1.23;;
1625;SDS011;806;48.770;9.156;2023-02-28T08:01:35;2.95;;;1.70;;
1625;SDS011;806;48.770;9.156;2023-02-28T08:04:03;3.30;;;1.60;;
1625;SDS011;806;48.770;9.156;2023-02-28T08:06:30;2.90;;;1.63;;
1625;SDS011;806;48.770;9.156;2023-02-28T08:08:58;3.70;;;1.60;;
1625;SDS011;806;48.770;9.156;2023-02-28T08:11:26;3.42;;;1.90;;
1625;SDS011;806;48.770;9.156;2023-02-28T08:13:54;3.10;;;2.10;;
1625;SDS011;806;48.770;9.156;2023-02-28T08:16:21;3.10;;;1.75;;
1625;SDS011;806;48.770;9.156;2023-02-28T08:18:48;3.80;;;2.10;;
1625;SDS011;806;48.770;9.156;2023-02-28T08:21:16;3.00;;;1.90;;
1625;SDS011;806;48.770;9.156;2023-02-28T08:23:43;2.40;;;1.70;;
1625;SDS011;806;48.770;9.156;2023-02-28T08:26:13;3.55;;;1.80;;
1625;SDS011;806;48.770;9.156;2023-02-28T08:28:41;5.43;;;2.00;;
1625;SDS011;806;48.770;9.156;2023-02-28T08:31:09;3.70;;;1.88;;
1625;SDS011;806;48.770;9.156;2023-02-28T08:33:38;3.10;;;2.00;;
1625;SDS011;806;48.770;9.156;2023-02-28T08:36:07;4.03;;;2.30;;
1625;SDS011;806;48.770;9.156;2023-02-28T08:38:35;3.75;;;1.50;;
1625;SDS011;806;48.770;9.156;2023-02-28T08:41:03;2.80;;;1.52;;
1625;SDS011;806;48.770;9.156;2023-02-28T08:43:33;5.10;;;2.35;;
1625;SDS011;806;48.770;9.156;2023-02-28T08:46:01;2.60;;;1.80;;
1625;SDS011;806;48.770;9.156;2023-02-28T08:48:29;3.13;;;1.73;;
1625;SDS011;806;48.770;9.156;2023-02-28T08:50:58;2.20;;;1.40;;
1625;SDS011;806;48.770;9.156;2023-02-28T08:53:26;4.18;;;1.85;;
1625;SDS011;806;48.770;9.156;2023-02-28T08:55:56;2.88;;;1.70;;
1625;SDS011;806;48.770;9.156;2023-02-28T08:58:24;4.22;;;2.00;;
1625;SDS011;806;48.770;9.156;2023-02-28T09:00:53;5.50;;;1.90;;
1625;SDS011;806;48.770;9.156;2023-02-28T09:03:21;2.20;;;1.50;;
1625;SDS011;806;48.770;9.156;2023-02-28T09:05:51;3.63;;;1.67;;
1625;SDS011;806;48.770;9.156;2023-02-28T09:08:19;5.35;;;2.00;;
1625;SDS011;806;48.770;9.156;2023-02-28T09:10:47;2.92;;;2.00;;
1625;SDS011;806;48.770;9.156;2023-02-28T09:13:14;3.43;;;2.37;;
1625;SDS011;806;48.770;9.156;2023-02-28T09:15:41;4.03;;;2.25;;
1625;SDS011;806;48.770;9.156;2023-02-28T09:18:09;3.38;;;2.08;;
1625;SDS011;806;48.770;9.156;2023-02-28T09:20:37;5.07;;;2.00;;
1625;SDS011;806;48.770;9.156;2023-02-28T09:23:05;4.03;;;2.58;;
1625;SDS011;806;48.770;9.156;2023-02-28T09:25:32;4.53;;;2.33;;
1625;SDS011;806;48.770;9.156;2023-02-28T09:27:59;5.57;;;1.80;;
1625;SDS011;806;48.770;9.156;2023-02-28T09:30:26;3.85;;;1.75;;
1625;SDS011;806;48.770;9.156;2023-02-28T09:32:54;4.47;;;2.20;;
1625;SDS011;806;48.770;9.156;2023-02-28T09:35:22;3.40;;;1.77;;
1625;SDS011;806;48.770;9.156;2023-02-28T09:37:51;4.00;;;2.10;;
1625;SDS011;806;48.770;9.156;2023-02-28T09:40:19;3.90;;;1.83;;
1625;SDS011;806;48.770;9.156;2023-02-28T09:42:50;3.75;;;1.95;;
1625;SDS011;806;48.770;9.156;2023-02-28T09:45:21;3.28;;;2.00;;
1625;SDS011;806;48.770;9.156;2023-02-28T09:47:51;4.68;;;2.13;;
1625;SDS011;806;48.770;9.156;2023-02-28T09:50:27;2.90;;;2.10;;
1625;SDS011;806;48.770;9.156;2023-02-28T09:52:58;3.30;;;2.00;;
1625;SDS011;806;48.770;9.156;2023-02-28T09:55:28;3.70;;;2.30;;
1625;SDS011;806;48.770;9.156;2023-02-28T09:57:59;3.40;;;2.25;;
1625;SDS011;806;48.770;9.156;2023-02-28T10:00:29;2.88;;;2.00;;
1625;SDS011;806;48.770;9.156;2023-02-28T10:03:14;4.60;;;2.38;;
1625;SDS011;806;48.770;9.156;2023-02-28T10:05:59;4.85;;;2.58;;
1625;SDS011;806;48.770;9.156;2023-02-28T10:08:34;5.85;;;2.25;;
1625;SDS011;806;48.770;9.156;2023-02-28T10:11:08;3.83;;;2.45;;
1625;SDS011;806;48.770;9.156;2023-02-28T10:13:39;3.10;;;2.40;;
1625;SDS011;806;48.770;9.156;2023-02-28T10:16:16;4.00;;;2.40;;
1625;SDS011;806;48.770;9.156;2023-02-28T10:18:50;5.55;;;3.05;;
1625;SDS011;806;48.770;9.156;2023-02-28T10:21:23;5.97;;;2.90;;
1625;SDS011;806;48.770;9.156;2023-02-28T10:23:56;3.92;;;2.80;;
1625;SDS011;806;48.770;9.156;2023-02-28T10:26:29;4.43;;;2.70;;
1625;SDS011;806;48.770;9.156;2023-02-28T10:28:58;4.28;;;2.72;;
1625;SDS011;806;48.770;9.156;2023-02-28T10:31:26;3.35;;;1.90;;
1625;SDS011;806;48.770;9.156;2023-02-28T10:33:53;4.53;;;2.67;;
1625;SDS011;806;48.770;9.156;2023-02-28T10:36:22;3.65;;;2.33;;
1625;SDS011;806;48.770;9.156;2023-02-28T10:38:49;2.87;;;2.30;;
1625;SDS011;806;48.770;9.156;2023-02-28T10:41:26;3.80;;;1.92;;
1625;SDS011;806;48.770;9.156;2023-02-28T10:46:43;5.65;;;2.95;;
1625;SDS011;806;48.770;9.156;2023-02-28T10:49:12;4.53;;;2.30;;
1625;SDS011;806;48.770;9.156;2023-02-28T10:51:44;4.60;;;2.70;;
1625;SDS011;806;48.770;9.156;2023-02-28T10:54:17;3.05;;;2.40;;
1625;SDS011;806;48.770;9.156;2023-02-28T10:56:45;4.97;;;2.40;;
1625;SDS011;806;48.770;9.156;2023-02-28T10:59:33;4.95;;;2.28;;
1625;SDS011;806;48.770;9.156;2023-02-28T11:02:01;4.03;;;1.98;;
1625;SDS011;806;48.770;9.156;2023-02-28T11:04:32;4.13;;;2.80;;
1625;SDS011;806;48.770;9.156;2023-02-28T11:07:05;5.65;;;2.63;;
1625;SDS011;806;48.770;9.156;2023-02-28T11:09:44;6.57;;;4.13;;
1625;SDS011;806;48.770;9.156;2023-02-28T11:12:19;3.77;;;2.53;;
1625;SDS011;806;48.770;9.156;2023-02-28T11:14:48;3.80;;;2.80;;
1625;SDS011;806;48.770;9.156;2023-02-28T11:17:19;5.00;;;2.58;;
1625;SDS011;806;48.770;9.156;2023-02-28T11:19:49;3.00;;;2.20;;
1625;SDS011;806;48.770;9.156;2023-02-28T11:22:21;4.30;;;2.13;;
1625;SDS011;806;48.770;9.156;2023-02-28T11:24:54;5.25;;;3.05;;
1625;SDS011;806;48.770;9.156;2023-02-28T11:27:39;5.60;;;3.13;;
1625;SDS011;806;48.770;9.156;2023-02-28T11:30:24;4.15;;;2.80;;
1625;SDS011;806;48.770;9.156;2023-02-28T11:32:56;3.50;;;2.67;;
1625;SDS011;806;48.770;9.156;2023-02-28T11:35:26;4.70;;;2.88;;
1625;SDS011;806;48.770;9.156;2023-02-28T11:37:58;3.63;;;2.85;;
1625;SDS011;806;48.770;9.156;2023-02-28T11:40:28;6.80;;;3.20;;
1625;SDS011;806;48.770;9.156;2023-02-28T11:43:10;5.33;;;2.90;;
1625;SDS011;806;48.770;9.156;2023-02-28T11:45:47;5.30;;;2.65;;
1625;SDS011;806;48.770;9.156;2023-02-28T11:48:32;5.90;;;2.70;;
1625;SDS011;806;48.770;9.156;2023-02-28T11:51:08;5.07;;;2.80;;
1625;SDS011;806;48.770;9.156;2023-02-28T11:53:54;7.32;;;4.38;;
1625;SDS011;806;48.770;9.156;2023-02-28T11:56:43;5.97;;;3.63;;
1625;SDS011;806;48.770;9.156;2023-02-28T12:02:20;3.85;;;3.00;;
1625;SDS011;806;48.770;9.156;2023-02-28T12:04:57;3.88;;;2.80;;
1625;SDS011;806;48.770;9.156;2023-02-28T12:07:39;4.25;;;2.60;;
1625;SDS011;806;48.770;9.156;2023-02-28T12:10:21;4.53;;;2.47;;
1625;SDS011;806;48.770;9.156;2023-02-28T12:12:52;4.30;;;2.50;;
1625;SDS011;806;48.770;9.156;2023-02-28T12:15:37;3.90;;;2.60;;
1625;SDS011;806;48.770;9.156;2023-02-28T12:18:37;4.97;;;3.00;;
1625;SDS011;806;48.770;9.156;2023-02-28T12:21:15;4.68;;;3.83;;
1625;SDS011;806;48.770;9.156;2023-02-28T12:23:56;4.50;;;3.13;;
1625;SDS011;806;48.770;9.156;2023-02-28T12:26:45;4.07;;;2.60;;
1625;SDS011;806;48.770;9.156;2023-02-28T12:29:15;4.00;;;2.67;;
1625;SDS011;806;48.770;9.156;2023-02-28T12:31:49;4.07;;;2.58;;
1625;SDS011;806;48.770;9.156;2023-02-28T12:34:20;4.10;;;3.05;;
1625;SDS011;806;48.770;9.156;2023-02-28T12:36:51;5.13;;;3.13;;
1625;SDS011;806;48.770;9.156;2023-02-28T12:39:23;5.55;;;2.92;;
1625;SDS011;806;48.770;9.156;2023-02-28T12:41:55;5.28;;;3.53;;
1625;SDS011;806;48.770;9.156;2023-02-28T12:44:28;3.90;;;2.50;;
1625;SDS011;806;48.770;9.156;2023-02-28T12:46:59;4.28;;;2.10;;
1625;SDS011;806;48.770;9.156;2023-02-28T12:49:31;3.95;;;2.85;;
1625;SDS011;806;48.770;9.156;2023-02-28T12:52:03;4.57;;;3.08;;
1625;SDS011;806;48.770;9.156;2023-02-28T12:54:35;3.72;;;3.00;;
1625;SDS011;806;48.770;9.156;2023-02-28T12:57:12;5.25;;;3.15;;
1625;SDS011;806;48.770;9.156;2023-02-28T12:59:45;5.25;;;2.67;;
1625;SDS011;806;48.770;9.156;2023-02-28T13:08:23;3.15;;;2.42;;
1625;SDS011;806;48.770;9.156;2023-02-28T13:11:24;5.40;;;2.60;;
1625;SDS011;806;48.770;9.156;2023-02-28T13:13:59;2.92;;;2.33;;
1625;SDS011;806;48.770;9.156;2023-02-28T13:16:28;4.47;;;3.00;;
1625;SDS011;806;48.770;9.156;2023-02-28T13:19:16;3.17;;;2.35;;
1625;SDS011;806;48.770;9.156;2023-02-28T13:21:45;2.95;;;2.17;;
1625;SDS011;806;48.770;9.156;2023-02-28T13:24:35;4.43;;;2.90;;
1625;SDS011;806;48.770;9.156;2023-02-28T13:27:17;3.63;;;2.47;;
1625;SDS011;806;48.770;9.156;2023-02-28T13:33:23;4.68;;;2.83;;
1625;SDS011;806;48.770;9.156;2023-02-28T13:38:54;3.33;;;2.40;;
1625;SDS011;806;48.770;9.156;2023-02-28T13:44:14;4.32;;;3.03;;
1625;SDS011;806;48.770;9.156;2023-02-28T13:49:47;3.43;;;2.00;;
1625;SDS011;806;48.770;9.156;2023-02-28T13:52:19;3.55;;;2.90;;
1625;SDS011;806;48.770;9.156;2023-02-28T13:54:52;4.20;;;2.15;;
1625;SDS011;806;48.770;9.156;2023-02-28T13:57:33;4.05;;;2.78;;
1625;SDS011;806;48.770;9.156;2023-02-28T14:00:15;4.43;;;2.40;;
1625;SDS011;806;48.770;9.156;2023-02-28T14:02:54;4.55;;;3.03;;
1625;SDS011;806;48.770;9.156;2023-02-28T14:05:44;3.70;;;2.72;;
1625;SDS011;806;48.770;9.156;2023-02-28T14:08:12;4.70;;;2.90;;
1625;SDS011;806;48.770;9.156;2023-02-28T14:10:44;6.63;;;3.28;;
1625;SDS011;806;48.770;9.156;2023-02-28T14:16:09;4.87;;;2.80;;
1625;SDS011;806;48.770;9.156;2023-02-28T14:18:40;4.45;;;2.80;;
1625;SDS011;806;48.770;9.156;2023-02-28T14:21:16;3.80;;;2.38;;
1625;SDS011;806;48.770;9.156;2023-02-28T14:24:07;3.13;;;2.38;;
1625;SDS011;806;48.770;9.156;2023-02-28T14:27:08;6.75;;;4.10;;
1625;SDS011;806;48.770;9.156;2023-02-28T14:30:01;4.03;;;2.80;;
1625;SDS011;806;48.770;9.156;2023-02-28T14:32:44;4.80;;;2.70;;
1625;SDS011;806;48.770;9.156;2023-02-28T14:35:20;2.83;;;2.00;;
1625;SDS011;806;48.770;9.156;2023-02-28T14:38:08;5.28;;;2.13;;
1625;SDS011;806;48.770;9.156;2023-02-28T14:40:43;3.60;;;2.80;;
1625;SDS011;806;48.770;9.156;2023-02-28T14:43:18;4.40;;;2.70;;
1625;SDS011;806;48.770;9.156;2023-02-28T14:45:49;3.90;;;2.15;;
1625;SDS011;806;48.770;9.156;2023-02-28T14:48:18;3.25;;;2.10;;
1625;SDS011;806;48.770;9.156;2023-02-28T14:50:48;4.45;;;2.35;;
1625;SDS011;806;48.770;9.156;2023-02-28T14:53:19;3.30;;;2.10;;
1625;SDS011;806;48.770;9.156;2023-02-28T14:55:50;3.70;;;2.30;;
1625;SDS011;806;48.770;9.156;2023-02-28T14:58:22;5.85;;;2.10;;
1625;SDS011;806;48.770;9.156;2023-02-28T15:00:52;4.18;;;1.90;;
1625;SDS011;806;48.770;9.156;2023-02-28T15:03:22;2.97;;;1.90;;
1625;SDS011;806;48.770;9.156;2023-02-28T15:05:51;2.80;;;1.70;;
1625;SDS011;806;48.770;9.156;2023-02-28T15:08:20;3.20;;;2.10;;
1625;SDS011;806;48.770;9.156;2023-02-28T15:10:51;2.80;;;2.00;;
1625;SDS011;806;48.770;9.156;2023-02-28T15:13:20;6.00;;;2.30;;
1625;SDS011;806;48.770;9.156;2023-02-28T15:15:50;3.97;;;2.17;;
1625;SDS011;806;48.770;9.156;2023-02-28T15:18:25;3.25;;;2.05;;
1625;SDS011;806;48.770;9.156;2023-02-28T15:21:00;3.40;;;2.40;;
1625;SDS011;806;48.770;9.156;2023-02-28T15:23:32;3.60;;;2.45;;
1625;SDS011;806;48.770;9.156;2023-02-28T15:26:02;3.25;;;2.58;;
1625;SDS011;806;48.770;9.156;2023-02-28T15:28:30;3.38;;;1.90;;
1625;SDS011;806;48.770;9.156;2023-02-28T15:30:58;3.88;;;2.10;;
1625;SDS011;806;48.770;9.156;2023-02-28T15:33:28;4.65;;;2.30;;
1625;SDS011;806;48.770;9.156;2023-02-28T15:36:06;3.20;;;2.20;;
1625;SDS011;806;48.770;9.156;2023-02-28T15:38:39;5.38;;;2.10;;
1625;SDS011;806;48.770;9.156;2023-02-28T15:41:21;3.25;;;2.10;;
1625;SDS011;806;48.770;9.156;2023-02-28T15:43:57;3.28;;;1.75;;
1625;SDS011;806;48.770;9.156;2023-02-28T15:46:41;4.18;;;2.30;;
1625;SDS011;806;48.770;9.156;2023-02-28T15:49:17;2.60;;;1.95;;
1625;SDS011;806;48.770;9.156;2023-02-28T15:51:47;4.80;;;2.70;;
1625;SDS011;806;48.770;9.156;2023-02-28T15:54:18;3.92;;;2.00;;
1625;SDS011;806;48.770;9.156;2023-02-28T15:56:50;3.92;;;2.47;;
1625;SDS011;806;48.770;9.156;2023-02-28T15:59:19;3.70;;;2.10;;
1625;SDS011;806;48.770;9.156;2023-02-28T16:02:01;4.47;;;2.00;;
1625;SDS011;806;48.770;9.156;2023-02-28T16:04:53;4.35;;;2.88;;
1625;SDS011;806;48.770;9.156;2023-02-28T16:07:21;3.90;;;2.10;;
1625;SDS011;806;48.770;9.156;2023-02-28T16:09:50;4.65;;;2.38;;
1625;SDS011;806;48.770;9.156;2023-02-28T16:12:17;4.97;;;2.95;;
1625;SDS011;806;48.770;9.156;2023-02-28T16:14:46;3.88;;;2.60;;
1625;SDS011;806;48.770;9.156;2023-02-28T16:17:19;4.30;;;2.83;;
1625;SDS011;806;48.770;9.156;2023-02-28T16:19:48;4.30;;;3.27;;
1625;SDS011;806;48.770;9.156;2023-02-28T16:22:15;4.40;;;2.60;;
1625;SDS011;806;48.770;9.156;2023-02-28T16:24:42;4.35;;;2.30;;
1625;SDS011;806;48.770;9.156;2023-02-28T16:27:14;4.50;;;3.30;;
1625;SDS011;806;48.770;9.156;2023-02-28T16:29:44;4.28;;;3.15;;